Key Largo, FL (33037)

11:28 PM EST on December 22, 2014 (GMT -0500)
COALUSA | Change Station
CLOSE
Current Station
Personal Weather Station
Location: Key Largo, FL
Elevation: 15 ft
Nearby Weather Stations

Elev 15 ft 25.05 °N, 80.48 °W | Updated 4 minutes ago

Partly Cloudy
Partly Cloudy
75.3 °F
Feels Like 74 °F
N
6.0
Wind Variable Wind from SE

Today
High -- | Low -- °F
--% Chance of Precip.
Yesterday
High -- | Low -- °F
Precip. -- in
7:03 AM 5:37 PM
New Moon, 2% visible
Pressure 29.98 in
Visibility 10.0 miles
Clouds Clear
Heat Index 74 °F
Dew Point 73 °F
Humidity 91%
Rainfall 0.00 in
Snow Depth Not available.
UV 0.0 out of 12
Pollen 3.60 out of 12
Air Quality Not available.
Flu Activity Not available.
METAR KHST 230358Z AUTO 10004KT 10SM CLR 22/21 A2997 RMK AO2 SLP152 T02200212 $

More Conditions Fewer Conditions

Pressure 29.98 in
Visibility 10.0 miles
Clouds Clear
Heat Index 74 °F
Dew Point 73 °F
Humidity 91%
Rainfall 0.00 in
Snow Depth Not available.
UV 0.0 out of 12
Pollen 3.60 out of 12
Air Quality Not available.
Flu Activity Not available.
METAR KHST 230358Z AUTO 10004KT 10SM CLR 22/21 A2997 RMK AO2 SLP152 T02200212 $

More Conditions Fewer Conditions

10-Day Weather Forecast

Almanac

Astronomy

Dec. 22, 2014 Rise Set
Actual Time
Civil Twilight
Nautical Twilight
Astronomical Twilight
Moon
Length of Visible Light
Length of Day
Tomorrow will be .
, % of the Moon is Illuminated

Today's Extremes

State Highs State Lows

Community

WunderPhotos

Upload Photos

1,779,776 photos uploaded!

WunderBlogs® & News

Nearby

Air Quality

  Air Quality AQ Index Pollutant
Not available.

Snow Depth

Station Depth Elevation

Earthquake Activity

City Distance Mag. Time & Date
Minimum magnitude displayed is 2.5.

Coastal Water Temperatures

Place Temperature

Nearby Weather Stations